Time;durP1;ratioP1;P1;durP2;ratioP2;P2;SDS_P1;SDS_P2;PMS_P1;PMS_P2;Temp;Humidity;BMP_temperature;BMP_pressure;BME280_temperature;BME280_humidity;BME280_pressure;Samples;Min_cycle;Max_cycle;Signal;HPM_P1;HPM_P2
2023/05/05 00:03:15;;;;;;;6.90;6.50;;;16.30;93.60;;;;;;10457984;28;20205;-78
2023/05/05 00:08:18;;;;;;;7.53;6.83;;;16.40;93.60;;;;;;10457325;28;20592;-79
2023/05/05 00:13:22;;;;;;;7.80;7.10;;;16.40;93.70;;;;;;10456802;28;20190;-79
2023/05/05 00:18:24;;;;;;;6.63;6.13;;;16.40;93.70;;;;;;10456366;28;20292;-79
2023/05/05 00:23:27;;;;;;;6.97;6.33;;;16.40;93.80;;;;;;10439704;28;20217;-79
2023/05/05 00:28:30;;;;;;;7.27;6.77;;;16.30;93.80;;;;;;10455970;28;20285;-78
2023/05/05 00:33:32;;;;;;;7.07;6.57;;;16.30;93.90;;;;;;10457570;28;20193;-79
2023/05/05 00:38:36;;;;;;;7.60;6.73;;;16.30;93.90;;;;;;10456630;28;20276;-77
2023/05/05 00:43:39;;;;;;;7.60;6.90;;;16.30;94.20;;;;;;10439758;28;20206;-78
2023/05/05 00:48:41;;;;;;;7.10;6.50;;;16.30;94.40;;;;;;10457022;28;20214;-79
2023/05/05 00:53:45;;;;;;;7.23;6.63;;;16.20;94.60;;;;;;10458512;28;20198;-79
2023/05/05 00:58:47;;;;;;;7.47;6.97;;;16.20;94.70;;;;;;10456338;28;20229;-80
2023/05/05 01:03:50;;;;;;;7.27;6.77;;;16.20;95.00;;;;;;10452141;28;20201;-79
2023/05/05 01:09:04;;;;;;;6.67;6.27;;;16.20;95.00;;;;;;10455921;28;20240;-78
2023/05/05 01:14:12;;;;;;;7.60;7.10;;;16.10;95.20;;;;;;10458342;28;20693;-79
2023/05/05 01:19:29;;;;;;;7.03;6.37;;;16.20;95.30;;;;;;10447736;28;20234;-80
2023/05/05 01:24:48;;;;;;;7.27;6.77;;;16.20;95.40;;;;;;10456260;28;20247;-78
2023/05/05 01:30:08;;;;;;;7.57;7.03;;;16.20;95.30;;;;;;10420067;28;20224;-79
2023/05/05 01:35:17;;;;;;;6.80;6.30;;;16.20;95.20;;;;;;10457664;28;20654;-79
2023/05/05 01:40:22;;;;;;;6.97;6.47;;;16.10;95.50;;;;;;10440676;28;20347;-78
2023/05/05 01:45:29;;;;;;;7.27;6.77;;;16.10;95.40;;;;;;10464916;28;20194;-78
2023/05/05 01:50:33;;;;;;;7.10;6.60;;;16.00;95.50;;;;;;10466394;28;20213;-79
2023/05/05 01:55:37;;;;;;;6.97;6.37;;;16.00;95.40;;;;;;10465865;28;20284;-78
2023/05/05 02:00:40;;;;;;;7.60;7.00;;;16.00;95.60;;;;;;10450025;28;20217;-80
2023/05/05 02:05:44;;;;;;;7.63;6.67;;;16.00;95.60;;;;;;10468865;28;20650;-80
2023/05/05 02:10:47;;;;;;;7.07;6.60;;;16.00;95.80;;;;;;10468019;28;20260;-79
2023/05/05 02:15:51;;;;;;;6.63;6.23;;;16.00;95.80;;;;;;10449821;28;20217;-80
2023/05/05 02:20:54;;;;;;;6.73;6.33;;;16.00;95.90;;;;;;10469437;28;20218;-79
2023/05/05 02:26:03;;;;;;;7.37;6.83;;;16.10;96.10;;;;;;10469955;28;20661;-80
2023/05/05 02:31:08;;;;;;;6.57;6.17;;;16.10;95.70;;;;;;10469543;28;20225;-79
2023/05/05 02:36:16;;;;;;;7.10;6.50;;;16.10;95.90;;;;;;10468532;28;20225;-80
2023/05/05 02:41:28;;;;;;;6.80;6.40;;;16.00;96.00;;;;;;10469266;28;20252;-79
2023/05/05 02:46:31;;;;;;;6.90;6.40;;;16.10;96.10;;;;;;10468752;28;20207;-82
2023/05/05 02:51:35;;;;;;;6.37;5.97;;;16.10;96.00;;;;;;10469217;28;20220;-79
2023/05/05 02:56:47;;;;;;;6.53;6.03;;;16.10;95.90;;;;;;10468284;28;20251;-78
2023/05/05 03:02:03;;;;;;;7.17;6.53;;;16.00;96.10;;;;;;10472133;28;20214;-79
2023/05/05 03:07:14;;;;;;;6.10;5.70;;;16.00;95.90;;;;;;10472010;28;20454;-79
2023/05/05 03:12:22;;;;;;;6.47;5.93;;;16.10;95.80;;;;;;10472910;28;20224;-79
2023/05/05 03:17:36;;;;;;;6.80;6.20;;;16.10;95.80;;;;;;10472798;28;20210;-79
2023/05/05 03:22:40;;;;;;;5.63;5.13;;;16.20;95.90;;;;;;10473006;28;20244;-79
2023/05/05 03:27:46;;;;;;;6.33;5.83;;;16.30;95.90;;;;;;10473362;28;20251;-80
2023/05/05 03:32:53;;;;;;;9.60;5.57;;;16.40;95.80;;;;;;10462813;28;20229;-78
2023/05/05 03:37:57;;;;;;;6.10;5.53;;;16.50;95.90;;;;;;10460356;28;20225;-78
2023/05/05 03:42:59;;;;;;;6.03;5.53;;;16.50;96.10;;;;;;10456591;28;20268;-78
2023/05/05 03:48:02;;;;;;;5.80;5.40;;;16.50;96.00;;;;;;10455572;28;20195;-78
2023/05/05 03:53:07;;;;;;;5.63;5.23;;;16.60;96.10;;;;;;10456261;28;20267;-78
2023/05/05 03:58:09;;;;;;;5.83;5.43;;;16.60;96.10;;;;;;10458297;28;20276;-80
2023/05/05 04:03:12;;;;;;;6.07;5.57;;;16.60;96.20;;;;;;10456663;28;20221;-77
2023/05/05 04:08:16;;;;;;;6.27;5.83;;;16.70;96.30;;;;;;10457656;28;20222;-77
2023/05/05 04:13:18;;;;;;;6.20;5.80;;;16.70;96.50;;;;;;10456503;28;20268;-78
2023/05/05 04:18:20;;;;;;;6.10;5.67;;;16.70;96.70;;;;;;10454512;28;20221;-77
2023/05/05 04:23:24;;;;;;;5.73;5.43;;;16.80;96.70;;;;;;10454895;28;20198;-79
2023/05/05 04:28:26;;;;;;;6.00;5.60;;;16.80;96.70;;;;;;10456928;28;20655;-77
2023/05/05 04:33:29;;;;;;;6.70;6.27;;;16.80;96.90;;;;;;10456293;28;20194;-77
2023/05/05 04:38:32;;;;;;;6.60;6.00;;;16.90;97.00;;;;;;10455236;28;20217;-79
2023/05/05 04:43:36;;;;;;;7.10;6.50;;;17.00;97.10;;;;;;10455757;28;20198;-79
2023/05/05 04:48:38;;;;;;;5.90;5.60;;;16.90;97.30;;;;;;10455003;28;20214;-79
2023/05/05 04:53:42;;;;;;;6.30;5.73;;;16.90;97.50;;;;;;10454718;28;20225;-80
2023/05/05 04:58:44;;;;;;;6.43;5.80;;;17.00;97.60;;;;;;10455348;28;20246;-80
2023/05/05 05:03:46;;;;;;;6.10;5.70;;;17.10;97.70;;;;;;10452650;28;20285;-80
2023/05/05 05:08:50;;;;;;;5.63;5.20;;;17.20;97.80;;;;;;10453907;28;20213;-80
2023/05/05 05:13:53;;;;;;;5.30;5.00;;;17.20;97.90;;;;;;10454617;28;20201;-78
2023/05/05 05:18:55;;;;;;;5.83;5.43;;;17.30;97.80;;;;;;10459774;28;20692;-80
2023/05/05 05:23:59;;;;;;;5.63;5.17;;;17.40;97.70;;;;;;10455410;28;20643;-80
2023/05/05 05:29:04;;;;;;;5.53;5.03;;;17.40;98.20;;;;;;10442705;28;20214;-80
2023/05/05 05:34:07;;;;;;;5.60;5.20;;;17.50;98.10;;;;;;10461285;28;20248;-80
2023/05/05 05:39:12;;;;;;;4.80;4.43;;;17.50;98.40;;;;;;10459141;28;20702;-79
2023/05/05 05:44:14;;;;;;;5.70;5.17;;;17.60;97.90;;;;;;10461591;28;20197;-79
2023/05/05 05:49:17;;;;;;;6.20;5.67;;;17.60;98.30;;;;;;10463089;28;20582;-79
2023/05/05 05:54:20;;;;;;;5.20;4.90;;;17.70;98.40;;;;;;10463098;28;20259;-79
2023/05/05 05:59:22;;;;;;;10.73;4.80;;;17.70;98.60;;;;;;10459679;28;20245;-80
2023/05/05 06:04:25;;;;;;;5.67;5.27;;;17.70;98.90;;;;;;10465284;28;20201;-79
2023/05/05 06:09:28;;;;;;;5.10;4.70;;;17.90;98.70;;;;;;10460796;28;20214;-79
2023/05/05 06:14:31;;;;;;;4.70;4.40;;;18.00;98.10;;;;;;10464215;28;20225;-80
2023/05/05 06:19:35;;;;;;;4.60;4.20;;;18.10;97.50;;;;;;10461721;28;20228;-79
2023/05/05 06:24:39;;;;;;;4.00;3.80;;;18.10;97.70;;;;;;10462687;28;20217;-79
2023/05/05 06:29:41;;;;;;;5.03;3.90;;;18.20;98.20;;;;;;10458271;28;20229;-79
2023/05/05 06:34:45;;;;;;;4.53;4.23;;;18.30;98.00;;;;;;10463246;28;20256;-80
2023/05/05 06:39:49;;;;;;;4.70;4.30;;;18.50;97.70;;;;;;10460588;28;20586;-80
2023/05/05 06:44:51;;;;;;;5.70;4.10;;;18.80;97.30;;;;;;10460448;28;20202;-79
2023/05/05 06:49:53;;;;;;;4.30;4.00;;;19.20;97.60;;;;;;10462316;28;20210;-80
2023/05/05 06:54:57;;;;;;;4.97;4.57;;;19.40;97.50;;;;;;10461905;28;20214;-80
2023/05/05 06:59:59;;;;;;;3.73;3.53;;;19.60;96.80;;;;;;10464965;28;20229;-80
2023/05/05 07:05:05;;;;;;;3.27;3.07;;;19.60;96.00;;;;;;10470629;28;20200;-78
2023/05/05 07:10:09;;;;;;;3.50;3.30;;;19.70;96.30;;;;;;10460850;28;20649;-78
2023/05/05 07:15:14;;;;;;;4.40;4.03;;;19.70;95.90;;;;;;10444969;28;20202;-81
2023/05/05 07:20:16;;;;;;;3.67;3.47;;;19.90;95.90;;;;;;10476047;28;20209;-80
2023/05/05 07:25:20;;;;;;;3.67;3.43;;;19.90;96.30;;;;;;10462231;28;20233;-79
2023/05/05 07:30:23;;;;;;;4.27;3.97;;;19.80;96.10;;;;;;10461007;28;20697;-80
2023/05/05 07:35:25;;;;;;;6.73;5.40;;;19.80;96.60;;;;;;10459857;28;20204;-80
2023/05/05 07:40:28;;;;;;;6.40;3.40;;;19.80;96.80;;;;;;10460415;28;20232;-79
2023/05/05 07:45:31;;;;;;;4.00;3.70;;;19.80;96.70;;;;;;10461459;28;20260;-79
2023/05/05 07:50:33;;;;;;;6.20;5.63;;;19.80;97.40;;;;;;10437205;28;20264;-80
2023/05/05 07:55:36;;;;;;;17.53;12.07;;;19.80;97.60;;;;;;10461901;28;20194;-80
2023/05/05 08:00:39;;;;;;;4.23;3.90;;;19.70;97.30;;;;;;10461296;28;20617;-80
2023/05/05 08:05:41;;;;;;;3.60;3.30;;;19.60;97.80;;;;;;10468652;28;20207;-79
2023/05/05 08:10:45;;;;;;;5.07;4.57;;;19.50;98.40;;;;;;10467698;28;20277;-79
2023/05/05 08:15:47;;;;;;;6.60;4.17;;;19.30;98.70;;;;;;10464025;28;20202;-79
2023/05/05 08:20:49;;;;;;;4.17;3.80;;;19.20;99.30;;;;;;10459676;28;20642;-79
2023/05/05 08:25:52;;;;;;;4.30;4.00;;;19.00;99.90;;;;;;10457170;28;20559;-80
2023/05/05 08:30:54;;;;;;;4.50;4.23;;;19.00;99.90;;;;;;10459534;28;20226;-78
2023/05/05 08:35:57;;;;;;;4.30;3.90;;;19.00;99.90;;;;;;10457578;28;20194;-79
2023/05/05 08:41:00;;;;;;;4.63;4.33;;;18.90;99.90;;;;;;10459418;28;20214;-79
2023/05/05 08:46:03;;;;;;;4.20;3.90;;;19.00;99.90;;;;;;10457870;28;20194;-79
2023/05/05 08:51:06;;;;;;;4.30;3.90;;;19.00;99.90;;;;;;10457427;28;20209;-78
2023/05/05 08:56:12;;;;;;;4.60;4.30;;;19.10;99.90;;;;;;10459371;28;20192;-79
2023/05/05 09:01:15;;;;;;;4.47;4.17;;;19.30;99.90;;;;;;10458728;28;20214;-81
2023/05/05 09:06:20;;;;;;;4.47;4.17;;;19.40;99.90;;;;;;10459598;28;20198;-78
2023/05/05 09:11:23;;;;;;;3.97;3.67;;;19.50;99.90;;;;;;10458996;28;20293;-79
2023/05/05 09:16:25;;;;;;;3.77;3.47;;;19.60;99.80;;;;;;10457802;28;20444;-79
2023/05/05 09:21:28;;;;;;;4.53;4.23;;;19.80;99.90;;;;;;10455911;28;20632;-79
2023/05/05 09:26:33;;;;;;;4.60;4.20;;;19.90;99.90;;;;;;10430839;28;20669;-79
2023/05/05 09:31:36;;;;;;;4.07;3.73;;;20.10;99.90;;;;;;10429607;28;20226;-78
2023/05/05 09:36:43;;;;;;;4.17;3.87;;;20.30;99.80;;;;;;10459879;28;20601;-79
2023/05/05 09:41:46;;;;;;;4.90;3.80;;;20.50;98.70;;;;;;10459546;28;20245;-79
2023/05/05 09:46:54;;;;;;;3.77;3.57;;;20.60;97.80;;;;;;10459838;28;20202;-79
2023/05/05 09:51:57;;;;;;;6.47;5.87;;;20.60;98.20;;;;;;10467099;28;20285;-81
2023/05/05 09:57:00;;;;;;;3.47;3.20;;;20.90;98.90;;;;;;10467956;28;20202;-78
2023/05/05 10:02:12;;;;;;;4.77;3.00;;;21.40;96.40;;;;;;10469371;28;20308;-80
2023/05/05 10:07:23;;;;;;;2.80;2.63;;;21.70;97.70;;;;;;10469593;28;20705;-81
2023/05/05 10:12:28;;;;;;;2.80;2.60;;;22.10;95.50;;;;;;10467929;28;20214;-80
2023/05/05 10:17:32;;;;;;;3.87;3.03;;;22.20;94.30;;;;;;10465954;28;20207;-80
2023/05/05 10:22:35;;;;;;;4.77;4.30;;;22.20;95.20;;;;;;10470887;28;20713;-79
2023/05/05 10:27:43;;;;;;;5.47;4.80;;;22.00;95.70;;;;;;10463699;28;20200;-80
2023/05/05 10:32:49;;;;;;;3.43;3.23;;;21.70;96.60;;;;;;10466869;28;20225;-79
2023/05/05 10:37:52;;;;;;;3.60;3.40;;;21.50;97.00;;;;;;10463905;28;20206;-79
2023/05/05 10:42:57;;;;;;;3.23;2.93;;;21.40;96.60;;;;;;10462189;28;20686;-79
2023/05/05 10:48:04;;;;;;;3.60;3.30;;;21.30;96.50;;;;;;10461604;28;20293;-80
2023/05/05 10:53:15;;;;;;;3.50;3.30;;;21.10;96.70;;;;;;10462860;28;20197;-80
2023/05/05 10:58:35;;;;;;;5.60;3.10;;;21.00;95.20;;;;;;10463233;28;20240;-79
2023/05/05 11:03:37;;;;;;;2.77;2.57;;;20.80;95.30;;;;;;10463549;28;20193;-80
2023/05/05 11:08:41;;;;;;;3.70;3.40;;;20.70;95.40;;;;;;10461780;28;20221;-79
2023/05/05 11:13:45;;;;;;;3.90;3.70;;;20.50;97.70;;;;;;10463550;28;20190;-80
2023/05/05 11:18:47;;;;;;;3.53;3.23;;;20.30;99.90;;;;;;10461383;28;20226;-79
2023/05/05 11:23:51;;;;;;;3.60;3.40;;;20.10;99.90;;;;;;10462915;28;20226;-80
2023/05/05 11:29:00;;;;;;;3.00;2.80;;;20.10;99.90;;;;;;10460027;28;20651;-79
2023/05/05 11:34:26;;;;;;;3.23;3.03;;;20.20;99.90;;;;;;10448940;28;20198;-79
2023/05/05 11:39:40;;;;;;;3.70;3.40;;;20.50;99.90;;;;;;10457019;28;20229;-80
2023/05/05 11:44:44;;;;;;;3.00;2.80;;;20.80;99.90;;;;;;10457583;28;20232;-80
2023/05/05 11:49:46;;;;;;;5.50;2.40;;;21.10;99.90;;;;;;10459116;28;20212;-79
2023/05/05 11:54:49;;;;;;;3.17;3.00;;;21.30;99.90;;;;;;10458700;28;20206;-80
2023/05/05 11:59:56;;;;;;;5.00;2.90;;;21.60;99.90;;;;;;10459660;28;20230;-79
2023/05/05 12:04:59;;;;;;;2.97;2.63;;;21.80;99.60;;;;;;10458012;28;20194;-81
2023/05/05 12:10:01;;;;;;;3.93;3.53;;;21.80;96.50;;;;;;10456103;28;20225;-80
2023/05/05 12:15:05;;;;;;;2.87;2.77;;;21.90;95.90;;;;;;10457519;28;20190;-79
2023/05/05 12:20:09;;;;;;;3.20;2.90;;;21.90;97.10;;;;;;10460201;28;20275;-80
2023/05/05 12:25:11;;;;;;;2.97;2.87;;;21.90;97.30;;;;;;10456791;28;20202;-79
2023/05/05 12:30:17;;;;;;;3.33;3.13;;;22.00;98.10;;;;;;10461826;28;20218;-81
2023/05/05 12:35:19;;;;;;;3.17;2.97;;;22.00;97.70;;;;;;10457876;28;20572;-80
2023/05/05 12:40:43;;;;;;;4.00;3.70;;;22.00;97.60;;;;;;10463944;28;20221;-81
2023/05/05 12:45:48;;;;;;;3.20;3.00;;;21.80;97.10;;;;;;10464275;28;20193;-80
2023/05/05 12:50:51;;;;;;;3.50;3.30;;;21.70;95.70;;;;;;10463397;28;20218;-81
2023/05/05 12:55:56;;;;;;;3.67;3.40;;;21.60;95.30;;;;;;10462849;28;20530;-82
2023/05/05 13:01:11;;;;;;;3.50;3.27;;;21.70;95.30;;;;;;10441356;28;20575;-80
2023/05/05 13:06:20;;;;;;;3.77;3.50;;;21.80;94.70;;;;;;10457241;28;20197;-81
2023/05/05 13:11:22;;;;;;;3.53;3.33;;;21.90;95.20;;;;;;10459801;28;20692;-79
2023/05/05 13:16:26;;;;;;;3.70;3.37;;;22.00;94.50;;;;;;10459299;28;20194;-80
2023/05/05 13:21:28;;;;;;;3.77;3.47;;;22.10;95.00;;;;;;10459613;28;20226;-80
2023/05/05 13:26:30;;;;;;;3.97;3.60;;;22.20;94.20;;;;;;10459738;28;20228;-81
2023/05/05 13:31:33;;;;;;;4.40;3.07;;;22.20;93.40;;;;;;10458998;28;20256;-81
2023/05/05 13:36:35;;;;;;;3.57;3.37;;;22.20;94.30;;;;;;10458890;28;20666;-81
2023/05/05 13:41:37;;;;;;;3.83;3.53;;;22.20;94.10;;;;;;10462756;28;20218;-81
2023/05/05 13:46:41;;;;;;;3.10;2.87;;;22.00;94.40;;;;;;10466472;28;20202;-81
2023/05/05 13:51:45;;;;;;;3.27;3.07;;;21.80;94.60;;;;;;10464767;28;20206;-81
2023/05/05 13:56:47;;;;;;;3.83;3.53;;;21.60;95.30;;;;;;10465629;28;20198;-81
2023/05/05 14:01:51;;;;;;;3.60;3.30;;;21.50;93.50;;;;;;10465847;28;20221;-80
2023/05/05 14:06:53;;;;;;;4.13;3.83;;;21.40;94.10;;;;;;10462781;28;20194;-81
2023/05/05 14:11:55;;;;;;;3.40;3.20;;;21.30;93.10;;;;;;10459919;28;20298;-80
2023/05/05 14:16:59;;;;;;;3.93;3.67;;;21.20;94.00;;;;;;10461290;28;20194;-80
2023/05/05 14:22:01;;;;;;;3.23;2.90;;;21.20;93.20;;;;;;10460604;28;20229;-80
2023/05/05 14:27:03;;;;;;;4.20;3.80;;;21.30;93.20;;;;;;10460406;28;20639;-80
2023/05/05 14:32:07;;;;;;;3.40;3.10;;;21.30;94.60;;;;;;10459111;28;20652;-80
2023/05/05 14:37:09;;;;;;;4.13;3.20;;;21.20;94.30;;;;;;10460268;28;20205;-80
2023/05/05 14:42:11;;;;;;;3.37;3.10;;;21.10;93.60;;;;;;10459849;28;20317;-81
2023/05/05 14:47:14;;;;;;;3.40;3.10;;;21.10;94.20;;;;;;10458913;28;20197;-80
2023/05/05 14:52:16;;;;;;;3.50;3.20;;;21.00;93.80;;;;;;10461772;28;20621;-80
2023/05/05 14:57:19;;;;;;;3.23;2.93;;;21.00;93.90;;;;;;10462590;28;20560;-79
2023/05/05 15:02:22;;;;;;;2.73;2.63;;;20.90;94.70;;;;;;10463155;28;20228;-78
2023/05/05 15:07:27;;;;;;;3.73;2.80;;;20.80;96.10;;;;;;10461660;28;20632;-79
2023/05/05 15:12:29;;;;;;;3.47;3.10;;;20.70;95.90;;;;;;10460628;28;20218;-81
2023/05/05 15:17:32;;;;;;;3.63;3.43;;;20.70;95.60;;;;;;10462048;28;20202;-80
2023/05/05 15:22:35;;;;;;;2.90;2.70;;;20.50;95.40;;;;;;10460295;28;20632;-79
2023/05/05 15:27:37;;;;;;;3.20;3.00;;;20.40;96.80;;;;;;10458533;28;20717;-79
2023/05/05 15:32:41;;;;;;;4.37;3.97;;;20.30;96.80;;;;;;10487456;23;20280;-82
2023/05/05 15:37:43;;;;;;;3.50;3.20;;;20.20;97.30;;;;;;10406263;28;20603;-83
2023/05/05 15:42:46;;;;;;;3.70;3.40;;;20.10;96.60;;;;;;10361875;28;20561;-83
2023/05/05 15:47:51;;;;;;;3.70;3.50;;;20.00;97.60;;;;;;10359485;28;20211;-82
2023/05/05 15:52:55;;;;;;;3.50;3.23;;;19.90;98.20;;;;;;10373788;28;20223;-82
2023/05/05 15:57:57;;;;;;;4.20;3.70;;;19.80;98.10;;;;;;10375929;28;20539;-81
2023/05/05 16:03:01;;;;;;;6.67;4.50;;;19.70;99.20;;;;;;10356741;28;20237;-83
2023/05/05 16:08:08;;;;;;;5.37;4.83;;;19.50;99.90;;;;;;10358251;28;20200;-82
2023/05/05 16:13:10;;;;;;;5.57;5.17;;;19.40;99.90;;;;;;10376766;28;20218;-82
2023/05/05 16:18:13;;;;;;;5.97;5.57;;;19.00;99.90;;;;;;10377788;28;20199;-82
2023/05/05 16:23:16;;;;;;;9.37;8.57;;;18.80;99.90;;;;;;10367583;28;20247;-82
2023/05/05 16:28:18;;;;;;;10.67;9.70;;;18.70;99.90;;;;;;10370940;28;20203;-81
2023/05/05 16:33:21;;;;;;;13.80;13.00;;;18.40;99.90;;;;;;10372062;28;20207;-82
2023/05/05 16:38:24;;;;;;;14.70;13.80;;;18.00;99.90;;;;;;10372965;28;20241;-83
2023/05/05 16:43:26;;;;;;;13.00;12.00;;;17.80;99.90;;;;;;10385755;28;20249;-83
2023/05/05 16:48:29;;;;;;;11.97;11.17;;;17.60;99.90;;;;;;10361977;28;20253;-82
2023/05/05 16:53:31;;;;;;;16.60;15.60;;;17.50;99.90;;;;;;10362470;28;20698;-83
2023/05/05 16:58:33;;;;;;;17.37;16.20;;;17.50;99.90;;;;;;10365434;28;20187;-82
2023/05/05 17:03:38;;;;;;;14.43;13.43;;;17.50;99.90;;;;;;10363905;28;20671;-82
2023/05/05 17:08:40;;;;;;;13.10;12.10;;;17.50;99.90;;;;;;10382560;28;20215;-80
2023/05/05 17:13:42;;;;;;;17.50;16.30;;;17.50;99.90;;;;;;10376524;28;20299;-81
2023/05/05 17:18:45;;;;;;;18.10;16.70;;;17.50;99.90;;;;;;10381456;28;20215;-80
2023/05/05 17:23:47;;;;;;;13.53;12.60;;;17.60;99.90;;;;;;10380978;28;20256;-83
2023/05/05 17:28:49;;;;;;;16.13;15.17;;;17.70;99.90;;;;;;10379998;28;20219;-82
2023/05/05 17:33:53;;;;;;;15.47;14.20;;;17.70;99.90;;;;;;10380085;28;20696;-83
2023/05/05 17:38:55;;;;;;;14.17;13.37;;;17.70;99.90;;;;;;10362768;28;20219;-83
2023/05/05 17:43:58;;;;;;;15.13;14.13;;;17.70;99.90;;;;;;10380032;28;20234;-83
2023/05/05 17:49:01;;;;;;;14.10;13.30;;;17.70;99.90;;;;;;10367806;28;20251;-82
2023/05/05 17:54:03;;;;;;;14.00;13.00;;;17.60;99.90;;;;;;10384042;28;20643;-83
2023/05/05 17:59:06;;;;;;;14.27;13.33;;;17.60;99.90;;;;;;10368536;28;20211;-82
2023/05/05 18:04:09;;;;;;;15.53;14.33;;;17.50;99.90;;;;;;10384764;28;20702;-83
2023/05/05 18:09:11;;;;;;;13.43;12.63;;;17.50;99.90;;;;;;10381136;28;20212;-83
2023/05/05 18:14:14;;;;;;;12.93;12.13;;;17.50;99.90;;;;;;10362995;28;20242;-81
2023/05/05 18:19:19;;;;;;;11.20;10.50;;;17.50;99.90;;;;;;10359939;28;20707;-81
2023/05/05 18:24:21;;;;;;;11.43;10.73;;;17.50;99.90;;;;;;10360434;28;20207;-83
2023/05/05 18:29:24;;;;;;;11.10;10.33;;;17.40;99.90;;;;;;10361253;28;20624;-84
2023/05/05 18:34:28;;;;;;;12.10;11.30;;;17.40;99.90;;;;;;10379305;28;20682;-84
2023/05/05 18:39:30;;;;;;;13.27;12.07;;;17.30;99.90;;;;;;10375870;28;20242;-83
2023/05/05 18:44:33;;;;;;;14.00;13.07;;;17.20;99.90;;;;;;10370852;28;20202;-83
2023/05/05 18:49:37;;;;;;;11.57;10.87;;;17.10;99.90;;;;;;10362147;28;20223;-83
2023/05/05 18:54:39;;;;;;;11.03;10.43;;;17.10;99.90;;;;;;10375940;28;20203;-82
2023/05/05 18:59:41;;;;;;;11.63;10.73;;;17.00;99.90;;;;;;10358624;28;20230;-84
2023/05/05 19:04:45;;;;;;;11.20;10.50;;;17.00;99.90;;;;;;10356237;28;20198;-84
2023/05/05 19:09:47;;;;;;;13.10;12.20;;;17.00;99.90;;;;;;10373402;28;20269;-84
2023/05/05 19:14:49;;;;;;;11.50;10.70;;;17.00;99.90;;;;;;10372970;28;20694;-84
2023/05/05 19:19:55;;;;;;;11.47;10.30;;;17.00;99.90;;;;;;10379193;28;20626;-83
2023/05/05 19:24:57;;;;;;;10.37;9.57;;;16.90;99.90;;;;;;10360388;28;20188;-84
2023/05/05 19:29:59;;;;;;;11.47;10.53;;;16.90;99.90;;;;;;10359734;28;20638;-83
2023/05/05 19:35:05;;;;;;;9.30;8.80;;;16.90;99.90;;;;;;10375342;28;20746;-85
2023/05/05 19:40:08;;;;;;;9.37;8.77;;;16.80;99.90;;;;;;10375299;28;20691;-85
2023/05/05 19:45:10;;;;;;;9.67;9.00;;;16.80;99.90;;;;;;10358438;28;20607;-87
2023/05/05 19:50:15;;;;;;;10.03;9.43;;;16.80;99.90;;;;;;10374660;28;20250;-84
2023/05/05 19:55:17;;;;;;;10.13;9.33;;;16.80;99.90;;;;;;10375103;28;20191;-83
2023/05/05 20:00:19;;;;;;;10.43;9.70;;;16.80;99.90;;;;;;10376224;28;20254;-83
2023/05/05 20:05:23;;;;;;;9.63;8.97;;;16.70;99.90;;;;;;10363034;28;20258;-83
2023/05/05 20:10:25;;;;;;;10.27;9.57;;;16.70;99.90;;;;;;10361428;28;20219;-84
2023/05/05 20:15:27;;;;;;;10.20;9.57;;;16.70;99.90;;;;;;10378871;28;20344;-83
2023/05/05 20:20:31;;;;;;;11.83;10.97;;;16.70;99.90;;;;;;10356762;28;20223;-84
2023/05/05 20:25:33;;;;;;;10.93;10.23;;;16.70;99.90;;;;;;10354629;28;20199;-84
2023/05/05 20:30:35;;;;;;;11.40;10.40;;;16.80;99.90;;;;;;10352865;28;20223;-83
2023/05/05 20:35:38;;;;;;;10.70;10.00;;;16.80;99.90;;;;;;10369360;28;20618;-84
2023/05/05 20:40:41;;;;;;;11.07;10.30;;;16.90;99.90;;;;;;10353670;28;20220;-84
2023/05/05 20:45:43;;;;;;;11.47;10.40;;;16.90;99.90;;;;;;10353219;28;20226;-82
2023/05/05 20:50:46;;;;;;;11.20;10.50;;;17.00;99.90;;;;;;10369725;28;20222;-84
2023/05/05 20:55:49;;;;;;;11.93;11.00;;;17.00;99.90;;;;;;10371747;28;20230;-83
2023/05/05 21:00:51;;;;;;;11.00;10.10;;;17.00;99.90;;;;;;10355286;28;20215;-83
2023/05/05 21:05:55;;;;;;;10.10;9.03;;;17.00;99.90;;;;;;10373575;28;20210;-83
2023/05/05 21:10:57;;;;;;;7.40;6.97;;;17.10;99.90;;;;;;10375127;28;20231;-83
2023/05/05 21:15:59;;;;;;;10.03;9.33;;;17.10;99.90;;;;;;10357361;28;20395;-83
2023/05/05 21:21:02;;;;;;;8.53;7.73;;;17.10;99.90;;;;;;10360338;28;20234;-82
2023/05/05 21:26:04;;;;;;;10.83;10.03;;;17.00;99.90;;;;;;10384506;28;20652;-81
2023/05/05 21:31:06;;;;;;;8.87;8.17;;;16.80;99.90;;;;;;10408737;23;20317;-81
2023/05/05 21:36:10;;;;;;;7.83;7.23;;;16.80;99.90;;;;;;10412505;28;20229;-82
2023/05/05 21:41:12;;;;;;;8.63;8.03;;;16.80;99.90;;;;;;10436757;28;20214;-83
2023/05/05 21:46:15;;;;;;;8.67;7.87;;;16.70;99.90;;;;;;10458828;28;20221;-82
2023/05/05 21:51:21;;;;;;;8.33;7.70;;;16.70;99.90;;;;;;10459523;28;20248;-82
2023/05/05 21:56:23;;;;;;;7.20;6.60;;;16.60;99.90;;;;;;10460493;28;20194;-82
2023/05/05 22:01:25;;;;;;;7.40;6.70;;;16.60;99.90;;;;;;10471132;28;20290;-81
2023/05/05 22:06:28;;;;;;;7.00;6.50;;;16.60;99.90;;;;;;10473591;28;20194;-82
2023/05/05 22:11:31;;;;;;;7.00;6.43;;;16.50;99.90;;;;;;10465980;28;20214;-82
2023/05/05 22:16:33;;;;;;;6.10;5.60;;;16.50;99.90;;;;;;10466990;28;20190;-82
2023/05/05 22:21:36;;;;;;;6.77;6.13;;;16.50;99.90;;;;;;10468277;28;20218;-83
2023/05/05 22:26:41;;;;;;;9.30;8.57;;;16.40;99.90;;;;;;10465901;28;20198;-82
2023/05/05 22:31:43;;;;;;;5.67;5.30;;;16.40;99.90;;;;;;10471582;28;20578;-82
2023/05/05 22:36:48;;;;;;;5.37;4.90;;;16.40;99.90;;;;;;10448907;28;20649;-83
2023/05/05 22:41:50;;;;;;;5.17;4.77;;;16.40;99.90;;;;;;10466132;28;20240;-83
2023/05/05 22:46:52;;;;;;;6.10;5.20;;;16.40;99.90;;;;;;10450306;28;20470;-83
2023/05/05 22:51:56;;;;;;;5.70;5.30;;;16.40;99.90;;;;;;10465776;28;20221;-83
2023/05/05 22:56:58;;;;;;;6.03;5.63;;;16.40;99.90;;;;;;10466541;28;20196;-83
2023/05/05 23:02:00;;;;;;;8.40;7.90;;;16.40;99.90;;;;;;10466904;28;20213;-83
2023/05/05 23:07:03;;;;;;;9.40;8.90;;;16.30;99.90;;;;;;10465287;28;20198;-83
2023/05/05 23:12:06;;;;;;;11.77;10.87;;;16.20;99.90;;;;;;10465023;28;20256;-83
2023/05/05 23:17:08;;;;;;;10.50;9.93;;;16.10;99.90;;;;;;10460940;28;20270;-82
2023/05/05 23:22:11;;;;;;;11.67;10.97;;;15.90;99.90;;;;;;10446533;28;20591;-82
2023/05/05 23:27:13;;;;;;;11.73;11.13;;;15.90;99.90;;;;;;10463602;28;20197;-83
2023/05/05 23:32:15;;;;;;;12.80;11.70;;;15.80;99.90;;;;;;10447160;28;20229;-82
2023/05/05 23:37:19;;;;;;;11.60;10.97;;;15.90;99.90;;;;;;10453439;28;20198;-82
2023/05/05 23:42:21;;;;;;;14.17;13.10;;;15.90;99.90;;;;;;10464043;28;20457;-82
2023/05/05 23:47:23;;;;;;;12.77;11.97;;;15.80;99.90;;;;;;10462727;28;20208;-82
2023/05/05 23:52:26;;;;;;;12.80;12.00;;;15.90;99.90;;;;;;10462098;28;20324;-82
2023/05/05 23:57:28;;;;;;;12.87;11.97;;;15.90;99.90;;;;;;10462826;28;20226;-81
